Time,TemperatureF,DewpointF,PressureIn,WindDirection,WindDirectionDegrees,WindSpeedMPH,WindSpeedGustMPH,Humidity,HourlyPrecipIn,Conditions,Clouds,dailyrainin,SoftwareType,DateUTC
2013-01-11 00:02:00,18.0,14.0,-100.00,North,5,1.0,2.0,84,-99.99,,,-99.99,,2013-01-11 08:02:00,
2013-01-11 00:10:00,17.0,13.0,-100.00,North,360,1.0,3.0,83,-99.99,,,-99.99,,2013-01-11 08:10:00,
2013-01-11 01:02:00,17.0,13.0,-100.00,North,360,1.0,3.0,83,-99.99,,,-99.99,,2013-01-11 09:02:00,
2013-01-11 02:02:00,16.0,13.0,-100.00,NW,310,3.0,6.0,87,-99.99,,,-99.99,,2013-01-11 10:02:00,
2013-01-11 02:10:00,15.0,12.0,-100.00,WNW,290,1.0,3.0,87,-99.99,,,-99.99,,2013-01-11 10:10:00,
2013-01-11 02:12:00,16.0,13.0,-100.00,NW,310,3.0,6.0,87,-99.99,,,-99.99,,2013-01-11 10:12:00,
2013-01-11 03:02:00,15.0,12.0,-100.00,WNW,290,1.0,3.0,87,-99.99,,,-99.99,,2013-01-11 11:02:00,
2013-01-11 04:02:00,15.0,12.0,-100.00,North,355,2.0,6.0,87,-99.99,,,-99.99,,2013-01-11 12:02:00,
2013-01-11 04:12:00,15.0,12.0,-100.00,North,355,2.0,6.0,87,-99.99,,,-99.99,,2013-01-11 12:12:00,
2013-01-11 05:02:00,15.0,12.0,-100.00,NW,310,5.0,6.0,87,-99.99,,,-99.99,,2013-01-11 13:02:00,
2013-01-11 05:10:00,17.0,14.0,-100.00,NW,325,3.0,9.0,87,-99.99,,,-99.99,,2013-01-11 13:10:00,
2013-01-11 06:03:00,17.0,14.0,-100.00,NW,325,3.0,9.0,87,-99.99,,,-99.99,,2013-01-11 14:03:00,
2013-01-11 07:03:00,17.0,13.0,-100.00,NW,325,5.0,7.0,83,-99.99,,,-99.99,,2013-01-11 15:03:00,
2013-01-11 07:10:00,19.0,14.0,-100.00,NNW,345,3.0,9.0,80,-99.99,,,-99.99,,2013-01-11 15:10:00,
2013-01-11 07:12:00,17.0,13.0,-100.00,NW,325,5.0,7.0,83,-99.99,,,-99.99,,2013-01-11 15:12:00,
2013-01-11 08:02:00,19.0,14.0,-100.00,NNW,345,3.0,9.0,80,-99.99,,,-99.99,,2013-01-11 16:02:00,
2013-01-11 09:03:00,19.0,14.0,-100.00,NW,325,5.0,8.0,80,-99.99,,,-99.99,,2013-01-11 17:03:00,
2013-01-11 09:12:00,19.0,14.0,-100.00,NW,325,5.0,8.0,80,-99.99,,,-99.99,,2013-01-11 17:12:00,
2013-01-11 09:20:00,20.0,15.0,-100.00,NNW,335,2.0,5.0,80,-99.99,,,-99.99,,2013-01-11 17:20:00,
2013-01-11 10:03:00,20.0,15.0,-100.00,NNW,335,2.0,5.0,80,-99.99,,,-99.99,,2013-01-11 18:03:00,
2013-01-11 10:10:00,23.0,16.0,-100.00,NW,310,1.0,3.0,74,-99.99,,,-99.99,,2013-01-11 18:10:00,
2013-01-11 10:12:00,20.0,15.0,-100.00,NNW,335,2.0,5.0,80,-99.99,,,-99.99,,2013-01-11 18:12:00,
2013-01-11 11:02:00,23.0,16.0,-100.00,NW,310,1.0,3.0,74,-99.99,,,-99.99,,2013-01-11 19:02:00,
2013-01-11 12:02:00,26.0,18.0,-100.00,North,10,1.0,2.0,71,-99.99,,,-99.99,,2013-01-11 20:02:00,
2013-01-11 12:12:00,26.0,18.0,-100.00,North,10,1.0,2.0,71,-99.99,,,-99.99,,2013-01-11 20:12:00,
2013-01-11 13:03:00,33.0,19.0,-100.00,NNE,30,1.0,2.0,55,-99.99,,,-99.99,,2013-01-11 21:03:00,
2013-01-11 13:10:00,38.0,14.0,-100.00,NE,50,1.0,1.0,36,-99.99,,,-99.99,,2013-01-11 21:10:00,
2013-01-11 14:02:00,38.0,14.0,-100.00,NE,50,1.0,1.0,36,-99.99,,,-99.99,,2013-01-11 22:02:00,
2013-01-11 15:02:00,36.0,14.0,-100.00,SSW,200,2.0,2.0,39,-99.99,,,-99.99,,2013-01-11 23:02:00,
2013-01-11 15:10:00,30.0,11.0,-100.00,NW,310,1.0,2.0,44,-99.99,,,-99.99,,2013-01-11 23:10:00,
2013-01-11 15:12:00,36.0,14.0,-100.00,SSW,200,2.0,2.0,39,-99.99,,,-99.99,,2013-01-11 23:12:00,
2013-01-11 16:02:00,30.0,11.0,-100.00,NW,310,1.0,2.0,44,-99.99,,,-99.99,,2013-01-12 00:02:00,
2013-01-11 17:02:00,26.0,12.0,-100.00,SW,215,0.0,1.0,54,-99.99,,,-99.99,,2013-01-12 01:02:00,
2013-01-11 17:12:00,26.0,12.0,-100.00,SW,215,0.0,1.0,54,-99.99,,,-99.99,,2013-01-12 01:12:00,
2013-01-11 18:02:00,24.0,12.0,-100.00,North,350,1.0,5.0,59,-99.99,,,-99.99,,2013-01-12 02:02:00,
2013-01-11 18:10:00,21.0,12.0,-100.00,NW,325,2.0,5.0,67,-99.99,,,-99.99,,2013-01-12 02:10:00,
2013-01-11 19:02:00,21.0,12.0,-100.00,NW,325,2.0,5.0,67,-99.99,,,-99.99,,2013-01-12 03:02:00,
2013-01-11 20:02:00,19.0,12.0,-100.00,North,360,2.0,3.0,73,-99.99,,,-99.99,,2013-01-12 04:02:00,
2013-01-11 20:10:00,19.0,13.0,-100.00,WNW,300,5.0,7.0,77,-99.99,,,-99.99,,2013-01-12 04:10:00,
2013-01-11 20:12:00,19.0,12.0,-100.00,North,360,2.0,3.0,73,-99.99,,,-99.99,,2013-01-12 04:12:00,
2013-01-11 21:03:00,19.0,13.0,-100.00,WNW,300,5.0,7.0,77,-99.99,,,-99.99,,2013-01-12 05:03:00,
2013-01-11 22:02:00,15.0,10.0,-100.00,NW,310,1.0,3.0,80,-99.99,,,-99.99,,2013-01-12 06:02:00,
2013-01-11 22:12:00,15.0,10.0,-100.00,NW,310,1.0,3.0,80,-99.99,,,-99.99,,2013-01-12 06:12:00,
2013-01-11 22:20:00,14.0,10.0,-100.00,NW,310,2.0,5.0,83,-99.99,,,-99.99,,2013-01-12 06:20:00,
2013-01-11 23:02:00,14.0,10.0,-100.00,NW,310,2.0,5.0,83,-99.99,,,-99.99,,2013-01-12 07:02:00,
2013-01-11 23:10:00,15.0,11.0,-100.00,WNW,295,3.0,5.0,83,-99.99,,,-99.99,,2013-01-12 07:10:00,
2013-01-11 23:12:00,14.0,10.0,-100.00,NW,310,2.0,5.0,83,-99.99,,,-99.99,,2013-01-12 07:12:00,